تبوك, السعودية

02:36 AM AST on سبتهبر 03, 2014 (GMT +0300)
Tabuk | Change Station
CLOSE
Current Station
Airport
Location: Tabuk,
Elevation: 2520 ft
Nearby Weather Stations

Elev 2520 ft 28.38 °N, 36.60 °E | Updated 1 hour ago

Clear
صافية
81 °F
Feels Like 81 °F
N
9
ريح متغير ريح from WNW

هذا اليوم
High -- | Low -- °F
--% Chance of Precip.
Yesterday
High -- | Low -- °F
Precip. -- في
6:12 AM 6:52 PM
الربع الاول, 56% visible
الضغط 29.83 في
وضوح الرؤية -9999.0 أميال
سحابات
نقطة الندى 46 °F
الرطوبة 30%
Rainfall 0.00 في
عمق الثلج Not available.
الأشعة فوق البنفسجية Not available.
Pollen Not available.
جودة الهواء Not available.
Flu Activity Not available.
METAR OETB 022200Z 30008KT CAVOK 27/08 Q1010 NOSIG

More Conditions Fewer Conditions

الضغط 29.83 في
وضوح الرؤية -9999.0 أميال
سحابات
نقطة الندى 46 °F
الرطوبة 30%
Rainfall 0.00 في
عمق الثلج Not available.
الأشعة فوق البنفسجية Not available.
Pollen Not available.
جودة الهواء Not available.
Flu Activity Not available.
METAR OETB 022200Z 30008KT CAVOK 27/08 Q1010 NOSIG

More Conditions Fewer Conditions

10-Day Weather Forecast

Almanac

علم الفلك

Sep. 03, 2014 Rise Set
Actual Time 6:12 AM AST 6:52 PM AST
Civil Twilight 5:48 AM AST 7:16 PM AST
Nautical Twilight 5:20 AM AST 7:44 PM AST
Astronomical Twilight 4:51 AM AST 8:13 PM AST
قمر 1:59 PM AST (9/3) 12:02 AM AST (9/3)
Length Of Visible Light 13h 27m
طول الیوم
12h 40m
Tomorrow will be 1m 38s shorter.
الربع الاول, 56% of the Moon is Illuminated
Sep 2
الربع الاول
Sep 8
بدر
Sep 15
الربع الآخر
Sep 24
New
Oct 1
الربع الاول

Yesterday's Extremes

Country Highs Country Lows

Community

WunderPhotos

Upload Photos

1,749,799 photos uploaded!

Nearby

جودة الهواء

Not available.

عمق الثلج

Not available.

Earthquake Activity

City Distance Mag. Time & Date
No recent earthquake activity has been reported nearby.
Minimum magnitude displayed is 2.5.

Coastal Water Temperatures

مكان درجات الحرارة
No Stations Reporting

Nearby Weather Stations